Abis Bremen — PCJO — position and weather

sailwx.info

Track history (hours):
 
Tides and Currents Weather Stations Pressure Air Temp Water Temp Dewpoint Dewpoint Depression Visibility Wind Speed Wind Dir Waves Ship Positions

Abis Bremen

Last reported at 2020-Sep-15 14:00 UTC. Time now 2020-Sep-18 06:56 UTC.
Position N 48°24' W 006°10'.

Length 90 m; draft 5.2 m.

Type: Ship. MMSI: 246778880.

Date/timePositionNaut miles runAvg speedWind from/ knotsBaromVisibWave heightAir tempDewpointWater temp
2020-Sep-15 14:00N 48°24' W 006°10'5 9.9
2020-Sep-15 13:29N 48°28' W 006°06'4610.4
2020-Sep-15 09:05N 49°03' W 005°20'4111.3
2020-Sep-15 05:31N 49°24' W 004°27'24 9.4
2020-Sep-15 03:01N 49°35' W 003°55'5 9.5
2020-Sep-15 02:30N 49°38' W 003°49'6111.1
2020-Sep-14 21:00N 50°03' W 002°23'1010.3
2020-Sep-14 20:01N 50°03' W 002°07'47 8.5
2020-Sep-14 14:31N 50°01' W 000°54'2512.3
2020-Sep-14 12:31N 49°59' W 000°15'3112.3
2020-Sep-14 10:00N 49°58' E 000°32'19 5.5
2020-Sep-14 06:30N 49°58' E 001°02'0 0.0
2020-Sep-14 05:30N 49°58' E 001°02'0 0.0
2020-Sep-14 04:54N 49°58' E 001°02'0 0.0
2020-Sep-14 03:57N 49°58' E 001°02'0 0.0
2020-Sep-14 03:09N 49°58' E 001°02'0 0.0
2020-Sep-14 02:54N 49°58' E 001°02'0 0.0
2020-Sep-14 02:12N 49°58' E 001°02'0 0.0
2020-Sep-14 00:33N 49°58' E 001°02'0 0.0
2020-Sep-13 22:30N 49°58' E 001°02'0 0.0
2020-Sep-13 21:54N 49°58' E 001°02'0 0.0
2020-Sep-13 21:18N 49°58' E 001°02'0 0.0
2020-Sep-13 14:24N 49°58' E 001°02'0 0.0
2020-Sep-13 08:54N 49°58' E 001°02'0 0.0
2020-Sep-13 08:30N 49°58' E 001°02'0 0.0
2020-Sep-13 04:48N 49°58' E 001°02'0 0.0
2020-Sep-13 04:27N 49°58' E 001°02'0 0.0
2020-Sep-13 01:54N 49°58' E 001°02'0 0.0
2020-Sep-12 23:27N 49°58' E 001°02'0 0.0
2020-Sep-12 08:12N 49°58' E 001°02'0 0.0
2020-Sep-12 06:27N 49°58' E 001°02'0 0.0
2020-Sep-12 04:54N 49°58' E 001°02'0 0.0
2020-Sep-12 04:18N 49°58' E 001°02'0 0.0
2020-Sep-11 23:42N 49°58' E 001°02'2 0.0
2020-Sep-10 14:01N 49°57' E 001°04'41 8.9
2020-Sep-10 09:27N 50°35' E 000°43'1610.8
2020-Sep-10 08:00N 50°46' E 001°00'3310.9
2020-Sep-10 05:00N 51°08' E 001°38'1510.0
2020-Sep-10 03:30N 51°20' E 001°53'5411.9
2020-Sep-09 22:57N 52°01' E 002°51'3811.0
2020-Sep-09 19:30N 52°03' E 003°52'13 8.8
2020-Sep-09 18:00N 51°57' E 004°11'4 8.5
2020-Sep-09 17:30N 51°54' E 004°17'7 4.3
2020-Sep-09 15:59N 51°54' E 004°27'0 0.0
2020-Sep-09 12:59N 51°54' E 004°27'0 0.0
2020-Sep-09 10:59N 51°54' E 004°27'0 0.0
2020-Sep-09 09:29N 51°54' E 004°27'0 0.0
2020-Sep-09 08:59N 51°54' E 004°27'0 0.0
2020-Sep-09 07:59N 51°54' E 004°27'0 0.0
2020-Sep-09 06:59N 51°54' E 004°27'0 0.0
2020-Sep-09 05:59N 51°54' E 004°27'1 0.3
2020-Sep-09 03:00N 51°54' E 004°28'0 0.0
2020-Sep-09 02:00N 51°54' E 004°28'0 0.0
2020-Sep-09 01:00N 51°54' E 004°28'0 0.0
2020-Sep-09 00:30N 51°54' E 004°28'0 0.0
2020-Sep-08 23:30N 51°54' E 004°28'0 0.0
2020-Sep-08 19:00N 51°54' E 004°28'0 0.0
2020-Sep-08 16:30N 51°54' E 004°28'0 0.0
2020-Sep-08 15:30N 51°54' E 004°28'0 0.0
2020-Sep-08 14:30N 51°54' E 004°28'0 0.0
2020-Sep-08 13:30N 51°54' E 004°28'0 0.0
2020-Sep-08 13:00N 51°54' E 004°28'0 0.0
2020-Sep-08 09:00N 51°54' E 004°28'0 0.0
2020-Sep-08 08:00N 51°54' E 004°28'0 0.0
2020-Sep-08 05:30N 51°54' E 004°28'0 0.0
2020-Sep-08 03:30N 51°54' E 004°28'0 0.0
2020-Sep-08 02:00N 51°54' E 004°28'0 0.0
2020-Sep-08 01:00N 51°54' E 004°28'0 0.0
2020-Sep-07 23:00N 51°54' E 004°28'0 0.0
2020-Sep-07 22:30N 51°54' E 004°28'0 0.0
2020-Sep-07 21:00N 51°54' E 004°28'0 0.0
2020-Sep-07 20:00N 51°54' E 004°28'0 0.0
2020-Sep-07 16:30N 51°54' E 004°28'0 0.0
2020-Sep-07 13:00N 51°54' E 004°28'0 0.0
2020-Sep-07 11:31N 51°54' E 004°28'1 0.3
2020-Sep-07 08:30N 51°54' E 004°27'0 0.0
2020-Sep-07 08:00N 51°54' E 004°27'0 0.0
2020-Sep-07 05:30N 51°54' E 004°27'0 0.0
2020-Sep-07 05:00N 51°54' E 004°27'0 0.0
2020-Sep-07 04:00N 51°54' E 004°27'0 0.0
2020-Sep-07 02:00N 51°54' E 004°27'0 0.0
2020-Sep-07 00:00N 51°54' E 004°27'0 0.0
2020-Sep-06 23:30N 51°54' E 004°27'0 0.0
2020-Sep-06 21:00N 51°54' E 004°27'0 0.0
2020-Sep-06 16:00N 51°54' E 004°27'0 0.0
2020-Sep-06 15:30N 51°54' E 004°27'0 0.0
2020-Sep-06 12:30N 51°54' E 004°27'0 0.0
2020-Sep-06 11:30N 51°54' E 004°27'0 0.0
2020-Sep-06 10:00N 51°54' E 004°27'29 5.8
2020-Sep-06 05:00N 51°58' E 003°41'47 9.1
2020-Sep-05 23:52N 51°40' E 002°31'68 9.3
2020-Sep-05 16:30N 50°46' E 001°25'  
Track history (hours):
 
Tides and Currents Weather Stations Pressure Air Temp Water Temp Dewpoint Dewpoint Depression Visibility Wind Speed Wind Dir Waves Ship Positions

Abis Bremen

Last reported at 2020-Sep-15 14:00 UTC. Time now 2020-Sep-18 06:56 UTC.
Position N 48°24' W 006°10'.

Length 90 m; draft 5.2 m.

Type: Ship. MMSI: 246778880.

Date/timePositionNaut miles runAvg speedWind from/ knotsBaromVisibWave heightAir tempDewpointWater temp
2020-Sep-15 14:00N 48°24' W 006°10'5 9.9
2020-Sep-15 13:29N 48°28' W 006°06'4610.4
2020-Sep-15 09:05N 49°03' W 005°20'4111.3
2020-Sep-15 05:31N 49°24' W 004°27'24 9.4
2020-Sep-15 03:01N 49°35' W 003°55'5 9.5
2020-Sep-15 02:30N 49°38' W 003°49'6111.1
2020-Sep-14 21:00N 50°03' W 002°23'1010.3
2020-Sep-14 20:01N 50°03' W 002°07'47 8.5
2020-Sep-14 14:31N 50°01' W 000°54'2512.3
2020-Sep-14 12:31N 49°59' W 000°15'3112.3
2020-Sep-14 10:00N 49°58' E 000°32'19 5.5
2020-Sep-14 06:30N 49°58' E 001°02'0 0.0
2020-Sep-14 05:30N 49°58' E 001°02'0 0.0
2020-Sep-14 04:54N 49°58' E 001°02'0 0.0
2020-Sep-14 03:57N 49°58' E 001°02'0 0.0
2020-Sep-14 03:09N 49°58' E 001°02'0 0.0
2020-Sep-14 02:54N 49°58' E 001°02'0 0.0
2020-Sep-14 02:12N 49°58' E 001°02'0 0.0
2020-Sep-14 00:33N 49°58' E 001°02'0 0.0
2020-Sep-13 22:30N 49°58' E 001°02'0 0.0
2020-Sep-13 21:54N 49°58' E 001°02'0 0.0
2020-Sep-13 21:18N 49°58' E 001°02'0 0.0
2020-Sep-13 14:24N 49°58' E 001°02'0 0.0
2020-Sep-13 08:54N 49°58' E 001°02'0 0.0
2020-Sep-13 08:30N 49°58' E 001°02'0 0.0
2020-Sep-13 04:48N 49°58' E 001°02'0 0.0
2020-Sep-13 04:27N 49°58' E 001°02'0 0.0
2020-Sep-13 01:54N 49°58' E 001°02'0 0.0
2020-Sep-12 23:27N 49°58' E 001°02'0 0.0
2020-Sep-12 08:12N 49°58' E 001°02'0 0.0
2020-Sep-12 06:27N 49°58' E 001°02'0 0.0
2020-Sep-12 04:54N 49°58' E 001°02'0 0.0
2020-Sep-12 04:18N 49°58' E 001°02'0 0.0
2020-Sep-11 23:42N 49°58' E 001°02'2 0.0
2020-Sep-10 14:01N 49°57' E 001°04'41 8.9
2020-Sep-10 09:27N 50°35' E 000°43'1610.8
2020-Sep-10 08:00N 50°46' E 001°00'3310.9
2020-Sep-10 05:00N 51°08' E 001°38'1510.0
2020-Sep-10 03:30N 51°20' E 001°53'5411.9
2020-Sep-09 22:57N 52°01' E 002°51'3811.0
2020-Sep-09 19:30N 52°03' E 003°52'13 8.8
2020-Sep-09 18:00N 51°57' E 004°11'4 8.5
2020-Sep-09 17:30N 51°54' E 004°17'7 4.3
2020-Sep-09 15:59N 51°54' E 004°27'0 0.0
2020-Sep-09 12:59N 51°54' E 004°27'0 0.0
2020-Sep-09 10:59N 51°54' E 004°27'0 0.0
2020-Sep-09 09:29N 51°54' E 004°27'0 0.0
2020-Sep-09 08:59N 51°54' E 004°27'0 0.0
2020-Sep-09 07:59N 51°54' E 004°27'0 0.0
2020-Sep-09 06:59N 51°54' E 004°27'0 0.0
2020-Sep-09 05:59N 51°54' E 004°27'1 0.3
2020-Sep-09 03:00N 51°54' E 004°28'0 0.0
2020-Sep-09 02:00N 51°54' E 004°28'0 0.0
2020-Sep-09 01:00N 51°54' E 004°28'0 0.0
2020-Sep-09 00:30N 51°54' E 004°28'0 0.0
2020-Sep-08 23:30N 51°54' E 004°28'0 0.0
2020-Sep-08 19:00N 51°54' E 004°28'0 0.0
2020-Sep-08 16:30N 51°54' E 004°28'0 0.0
2020-Sep-08 15:30N 51°54' E 004°28'0 0.0
2020-Sep-08 14:30N 51°54' E 004°28'0 0.0
2020-Sep-08 13:30N 51°54' E 004°28'0 0.0
2020-Sep-08 13:00N 51°54' E 004°28'0 0.0
2020-Sep-08 09:00N 51°54' E 004°28'0 0.0
2020-Sep-08 08:00N 51°54' E 004°28'0 0.0
2020-Sep-08 05:30N 51°54' E 004°28'0 0.0
2020-Sep-08 03:30N 51°54' E 004°28'0 0.0
2020-Sep-08 02:00N 51°54' E 004°28'0 0.0
2020-Sep-08 01:00N 51°54' E 004°28'0 0.0
2020-Sep-07 23:00N 51°54' E 004°28'0 0.0
2020-Sep-07 22:30N 51°54' E 004°28'0 0.0
2020-Sep-07 21:00N 51°54' E 004°28'0 0.0
2020-Sep-07 20:00N 51°54' E 004°28'0 0.0
2020-Sep-07 16:30N 51°54' E 004°28'0 0.0
2020-Sep-07 13:00N 51°54' E 004°28'0 0.0
2020-Sep-07 11:31N 51°54' E 004°28'1 0.3
2020-Sep-07 08:30N 51°54' E 004°27'0 0.0
2020-Sep-07 08:00N 51°54' E 004°27'0 0.0
2020-Sep-07 05:30N 51°54' E 004°27'0 0.0
2020-Sep-07 05:00N 51°54' E 004°27'0 0.0
2020-Sep-07 04:00N 51°54' E 004°27'0 0.0
2020-Sep-07 02:00N 51°54' E 004°27'0 0.0
2020-Sep-07 00:00N 51°54' E 004°27'0 0.0
2020-Sep-06 23:30N 51°54' E 004°27'0 0.0
2020-Sep-06 21:00N 51°54' E 004°27'0 0.0
2020-Sep-06 16:00N 51°54' E 004°27'0 0.0
2020-Sep-06 15:30N 51°54' E 004°27'0 0.0
2020-Sep-06 12:30N 51°54' E 004°27'0 0.0
2020-Sep-06 11:30N 51°54' E 004°27'0 0.0
2020-Sep-06 10:00N 51°54' E 004°27'29 5.8
2020-Sep-06 05:00N 51°58' E 003°41'47 9.1
2020-Sep-05 23:52N 51°40' E 002°31'68 9.3
2020-Sep-05 16:30N 50°46' E 001°25'  

Dump ship's entire track history